sensor_id;sensor_type;location;lat;lon;timestamp;P1;durP1;ratioP1;P2;durP2;ratioP2
32786;SDS011;19139;49.372;8.580;2022-10-16T00:00:20;3.33;;;1.00;;
32786;SDS011;19139;49.372;8.580;2022-10-16T00:02:47;1.20;;;0.73;;
32786;SDS011;19139;49.372;8.580;2022-10-16T00:05:18;1.03;;;0.73;;
32786;SDS011;19139;49.372;8.580;2022-10-16T00:07:50;2.10;;;1.10;;
32786;SDS011;19139;49.372;8.580;2022-10-16T00:10:16;1.90;;;1.27;;
32786;SDS011;19139;49.372;8.580;2022-10-16T00:12:43;2.27;;;0.83;;
32786;SDS011;19139;49.372;8.580;2022-10-16T00:15:09;1.80;;;1.20;;
32786;SDS011;19139;49.372;8.580;2022-10-16T00:17:36;1.63;;;1.10;;
32786;SDS011;19139;49.372;8.580;2022-10-16T00:20:03;1.20;;;0.80;;
32786;SDS011;19139;49.372;8.580;2022-10-16T00:22:35;1.50;;;1.10;;
32786;SDS011;19139;49.372;8.580;2022-10-16T00:25:02;1.27;;;1.10;;
32786;SDS011;19139;49.372;8.580;2022-10-16T00:27:33;1.47;;;0.90;;
32786;SDS011;19139;49.372;8.580;2022-10-16T00:30:05;1.63;;;1.00;;
32786;SDS011;19139;49.372;8.580;2022-10-16T00:32:34;1.67;;;1.10;;
32786;SDS011;19139;49.372;8.580;2022-10-16T00:35:00;1.20;;;1.07;;
32786;SDS011;19139;49.372;8.580;2022-10-16T00:37:32;1.57;;;0.90;;
32786;SDS011;19139;49.372;8.580;2022-10-16T00:40:04;2.13;;;1.13;;
32786;SDS011;19139;49.372;8.580;2022-10-16T00:42:31;2.50;;;0.90;;
32786;SDS011;19139;49.372;8.580;2022-10-16T00:45:02;2.10;;;1.10;;
32786;SDS011;19139;49.372;8.580;2022-10-16T00:47:39;1.27;;;0.90;;
32786;SDS011;19139;49.372;8.580;2022-10-16T00:50:16;1.60;;;0.90;;
32786;SDS011;19139;49.372;8.580;2022-10-16T00:52:54;1.30;;;0.80;;
32786;SDS011;19139;49.372;8.580;2022-10-16T00:55:22;1.07;;;0.60;;
32786;SDS011;19139;49.372;8.580;2022-10-16T00:57:54;1.30;;;1.07;;
32786;SDS011;19139;49.372;8.580;2022-10-16T01:00:24;1.60;;;1.00;;
32786;SDS011;19139;49.372;8.580;2022-10-16T01:02:55;1.27;;;0.87;;
32786;SDS011;19139;49.372;8.580;2022-10-16T01:05:26;2.07;;;0.90;;
32786;SDS011;19139;49.372;8.580;2022-10-16T01:10:47;1.40;;;0.90;;
32786;SDS011;19139;49.372;8.580;2022-10-16T01:13:32;1.20;;;0.93;;
32786;SDS011;19139;49.372;8.580;2022-10-16T01:16:08;1.60;;;1.00;;
32786;SDS011;19139;49.372;8.580;2022-10-16T01:21:45;1.87;;;1.30;;
32786;SDS011;19139;49.372;8.580;2022-10-16T01:27:09;2.73;;;0.97;;
32786;SDS011;19139;49.372;8.580;2022-10-16T01:32:36;1.20;;;0.80;;
32786;SDS011;19139;49.372;8.580;2022-10-16T01:37:53;1.33;;;0.73;;
32786;SDS011;19139;49.372;8.580;2022-10-16T01:40:34;2.13;;;1.03;;
32786;SDS011;19139;49.372;8.580;2022-10-16T01:43:12;1.30;;;1.07;;
32786;SDS011;19139;49.372;8.580;2022-10-16T01:45:42;1.00;;;0.80;;
32786;SDS011;19139;49.372;8.580;2022-10-16T01:48:12;1.47;;;0.80;;
32786;SDS011;19139;49.372;8.580;2022-10-16T01:50:41;1.40;;;1.00;;
32786;SDS011;19139;49.372;8.580;2022-10-16T01:53:15;1.60;;;1.00;;
32786;SDS011;19139;49.372;8.580;2022-10-16T01:55:43;1.43;;;1.03;;
32786;SDS011;19139;49.372;8.580;2022-10-16T01:58:12;2.43;;;1.27;;
32786;SDS011;19139;49.372;8.580;2022-10-16T02:00:45;1.13;;;0.80;;
32786;SDS011;19139;49.372;8.580;2022-10-16T02:03:13;1.67;;;0.80;;
32786;SDS011;19139;49.372;8.580;2022-10-16T02:05:45;1.13;;;1.03;;
32786;SDS011;19139;49.372;8.580;2022-10-16T02:08:25;1.03;;;0.60;;
32786;SDS011;19139;49.372;8.580;2022-10-16T02:10:59;1.23;;;1.10;;
32786;SDS011;19139;49.372;8.580;2022-10-16T02:16:11;1.33;;;0.70;;
32786;SDS011;19139;49.372;8.580;2022-10-16T02:18:44;1.03;;;0.80;;
32786;SDS011;19139;49.372;8.580;2022-10-16T02:21:16;1.53;;;1.13;;
32786;SDS011;19139;49.372;8.580;2022-10-16T02:29:12;1.87;;;1.00;;
32786;SDS011;19139;49.372;8.580;2022-10-16T02:31:43;1.63;;;0.80;;
32786;SDS011;19139;49.372;8.580;2022-10-16T02:34:13;1.80;;;0.97;;
32786;SDS011;19139;49.372;8.580;2022-10-16T02:36:41;2.07;;;0.97;;
32786;SDS011;19139;49.372;8.580;2022-10-16T02:39:14;1.47;;;1.00;;
32786;SDS011;19139;49.372;8.580;2022-10-16T02:41:42;1.30;;;0.90;;
32786;SDS011;19139;49.372;8.580;2022-10-16T02:44:13;1.10;;;0.70;;
32786;SDS011;19139;49.372;8.580;2022-10-16T02:46:45;1.30;;;0.73;;
32786;SDS011;19139;49.372;8.580;2022-10-16T02:49:11;2.17;;;1.00;;
32786;SDS011;19139;49.372;8.580;2022-10-16T02:51:43;1.20;;;0.60;;
32786;SDS011;19139;49.372;8.580;2022-10-16T02:54:14;1.33;;;0.80;;
32786;SDS011;19139;49.372;8.580;2022-10-16T02:56:41;1.80;;;1.00;;
32786;SDS011;19139;49.372;8.580;2022-10-16T02:59:12;1.03;;;0.90;;
32786;SDS011;19139;49.372;8.580;2022-10-16T03:01:44;1.47;;;0.80;;
32786;SDS011;19139;49.372;8.580;2022-10-16T03:04:10;1.33;;;0.60;;
32786;SDS011;19139;49.372;8.580;2022-10-16T03:06:42;1.50;;;1.00;;
32786;SDS011;19139;49.372;8.580;2022-10-16T03:09:13;1.33;;;0.80;;
32786;SDS011;19139;49.372;8.580;2022-10-16T03:11:45;1.60;;;1.00;;
32786;SDS011;19139;49.372;8.580;2022-10-16T03:14:12;1.63;;;0.80;;
32786;SDS011;19139;49.372;8.580;2022-10-16T03:16:44;1.20;;;0.80;;
32786;SDS011;19139;49.372;8.580;2022-10-16T03:19:10;0.90;;;0.63;;
32786;SDS011;19139;49.372;8.580;2022-10-16T03:21:42;1.67;;;1.00;;
32786;SDS011;19139;49.372;8.580;2022-10-16T03:24:13;1.23;;;0.90;;
32786;SDS011;19139;49.372;8.580;2022-10-16T03:26:45;1.83;;;0.80;;
32786;SDS011;19139;49.372;8.580;2022-10-16T03:29:11;1.13;;;0.80;;
32786;SDS011;19139;49.372;8.580;2022-10-16T03:31:43;1.47;;;0.80;;
32786;SDS011;19139;49.372;8.580;2022-10-16T03:34:14;1.27;;;0.90;;
32786;SDS011;19139;49.372;8.580;2022-10-16T03:36:41;1.30;;;0.80;;
32786;SDS011;19139;49.372;8.580;2022-10-16T03:39:12;1.20;;;0.80;;
32786;SDS011;19139;49.372;8.580;2022-10-16T03:41:44;1.97;;;1.13;;
32786;SDS011;19139;49.372;8.580;2022-10-16T03:44:12;1.33;;;0.87;;
32786;SDS011;19139;49.372;8.580;2022-10-16T03:46:44;1.03;;;0.87;;
32786;SDS011;19139;49.372;8.580;2022-10-16T03:49:11;0.90;;;0.70;;
32786;SDS011;19139;49.372;8.580;2022-10-16T03:51:42;1.87;;;0.97;;
32786;SDS011;19139;49.372;8.580;2022-10-16T03:54:14;2.03;;;0.67;;
32786;SDS011;19139;49.372;8.580;2022-10-16T03:56:40;1.57;;;0.70;;
32786;SDS011;19139;49.372;8.580;2022-10-16T03:59:12;1.63;;;0.80;;
32786;SDS011;19139;49.372;8.580;2022-10-16T04:01:43;1.27;;;0.70;;
32786;SDS011;19139;49.372;8.580;2022-10-16T04:04:15;1.60;;;0.70;;
32786;SDS011;19139;49.372;8.580;2022-10-16T04:06:41;1.53;;;1.00;;
32786;SDS011;19139;49.372;8.580;2022-10-16T04:09:13;1.17;;;0.80;;
32786;SDS011;19139;49.372;8.580;2022-10-16T04:11:44;1.57;;;0.93;;
32786;SDS011;19139;49.372;8.580;2022-10-16T04:14:11;1.50;;;0.90;;
32786;SDS011;19139;49.372;8.580;2022-10-16T04:16:37;1.40;;;1.00;;
32786;SDS011;19139;49.372;8.580;2022-10-16T04:19:09;1.40;;;1.00;;
32786;SDS011;19139;49.372;8.580;2022-10-16T04:21:41;1.00;;;0.73;;
32786;SDS011;19139;49.372;8.580;2022-10-16T04:24:12;1.57;;;0.90;;
32786;SDS011;19139;49.372;8.580;2022-10-16T04:26:44;0.97;;;0.53;;
32786;SDS011;19139;49.372;8.580;2022-10-16T04:29:10;0.90;;;0.80;;
32786;SDS011;19139;49.372;8.580;2022-10-16T04:31:42;1.47;;;0.83;;
32786;SDS011;19139;49.372;8.580;2022-10-16T04:34:13;0.80;;;0.60;;
32786;SDS011;19139;49.372;8.580;2022-10-16T04:36:46;2.53;;;0.90;;
32786;SDS011;19139;49.372;8.580;2022-10-16T04:39:19;1.00;;;0.70;;
32786;SDS011;19139;49.372;8.580;2022-10-16T04:41:50;0.93;;;0.60;;
32786;SDS011;19139;49.372;8.580;2022-10-16T04:44:22;1.10;;;0.83;;
32786;SDS011;19139;49.372;8.580;2022-10-16T04:46:53;1.00;;;0.90;;
32786;SDS011;19139;49.372;8.580;2022-10-16T04:49:25;1.10;;;0.73;;
32786;SDS011;19139;49.372;8.580;2022-10-16T04:51:51;1.20;;;0.80;;
32786;SDS011;19139;49.372;8.580;2022-10-16T04:54:23;1.17;;;0.87;;
32786;SDS011;19139;49.372;8.580;2022-10-16T04:56:54;1.87;;;1.13;;
32786;SDS011;19139;49.372;8.580;2022-10-16T04:59:21;1.23;;;0.77;;
32786;SDS011;19139;49.372;8.580;2022-10-16T05:01:53;1.43;;;0.73;;
32786;SDS011;19139;49.372;8.580;2022-10-16T05:04:25;0.90;;;0.70;;
32786;SDS011;19139;49.372;8.580;2022-10-16T05:06:51;0.83;;;0.63;;
32786;SDS011;19139;49.372;8.580;2022-10-16T05:09:23;1.53;;;0.90;;
32786;SDS011;19139;49.372;8.580;2022-10-16T05:11:54;1.10;;;1.00;;
32786;SDS011;19139;49.372;8.580;2022-10-16T05:14:21;0.80;;;0.70;;
32786;SDS011;19139;49.372;8.580;2022-10-16T05:16:52;1.17;;;0.80;;
32786;SDS011;19139;49.372;8.580;2022-10-16T05:19:24;1.10;;;0.80;;
32786;SDS011;19139;49.372;8.580;2022-10-16T05:21:53;1.20;;;1.00;;
32786;SDS011;19139;49.372;8.580;2022-10-16T05:24:25;0.80;;;0.63;;
32786;SDS011;19139;49.372;8.580;2022-10-16T05:26:52;1.50;;;0.70;;
32786;SDS011;19139;49.372;8.580;2022-10-16T05:29:19;1.50;;;0.80;;
32786;SDS011;19139;49.372;8.580;2022-10-16T05:31:45;1.00;;;0.70;;
32786;SDS011;19139;49.372;8.580;2022-10-16T05:34:12;1.47;;;0.70;;
32786;SDS011;19139;49.372;8.580;2022-10-16T05:36:39;0.93;;;0.80;;
32786;SDS011;19139;49.372;8.580;2022-10-16T05:39:05;1.90;;;0.83;;
32786;SDS011;19139;49.372;8.580;2022-10-16T05:41:32;1.47;;;1.00;;
32786;SDS011;19139;49.372;8.580;2022-10-16T05:43:58;1.10;;;0.80;;
32786;SDS011;19139;49.372;8.580;2022-10-16T05:46:25;1.57;;;1.07;;
32786;SDS011;19139;49.372;8.580;2022-10-16T05:48:52;0.90;;;0.57;;
32786;SDS011;19139;49.372;8.580;2022-10-16T05:51:19;1.63;;;0.80;;
32786;SDS011;19139;49.372;8.580;2022-10-16T05:53:45;1.47;;;0.90;;
32786;SDS011;19139;49.372;8.580;2022-10-16T05:56:12;1.33;;;0.63;;
32786;SDS011;19139;49.372;8.580;2022-10-16T05:58:39;1.27;;;0.83;;
32786;SDS011;19139;49.372;8.580;2022-10-16T06:01:16;1.60;;;0.60;;
32786;SDS011;19139;49.372;8.580;2022-10-16T06:03:44;0.90;;;0.63;;
32786;SDS011;19139;49.372;8.580;2022-10-16T06:06:15;1.10;;;0.90;;
32786;SDS011;19139;49.372;8.580;2022-10-16T06:08:43;1.10;;;0.80;;
32786;SDS011;19139;49.372;8.580;2022-10-16T06:11:15;1.00;;;0.73;;
32786;SDS011;19139;49.372;8.580;2022-10-16T06:13:43;2.00;;;0.93;;
32786;SDS011;19139;49.372;8.580;2022-10-16T06:16:12;1.10;;;0.70;;
32786;SDS011;19139;49.372;8.580;2022-10-16T06:18:39;1.47;;;0.77;;
32786;SDS011;19139;49.372;8.580;2022-10-16T06:21:09;0.77;;;0.60;;
32786;SDS011;19139;49.372;8.580;2022-10-16T06:23:38;1.00;;;0.57;;
32786;SDS011;19139;49.372;8.580;2022-10-16T06:26:05;0.73;;;0.73;;
32786;SDS011;19139;49.372;8.580;2022-10-16T06:28:33;1.50;;;0.70;;
32786;SDS011;19139;49.372;8.580;2022-10-16T06:31:05;1.43;;;0.83;;
32786;SDS011;19139;49.372;8.580;2022-10-16T06:33:34;1.37;;;0.70;;
32786;SDS011;19139;49.372;8.580;2022-10-16T06:36:04;1.90;;;0.83;;
32786;SDS011;19139;49.372;8.580;2022-10-16T06:38:35;1.30;;;0.73;;
32786;SDS011;19139;49.372;8.580;2022-10-16T06:41:02;1.20;;;0.90;;
32786;SDS011;19139;49.372;8.580;2022-10-16T06:43:30;1.77;;;0.80;;
32786;SDS011;19139;49.372;8.580;2022-10-16T06:46:01;1.43;;;0.73;;
32786;SDS011;19139;49.372;8.580;2022-10-16T06:48:28;1.80;;;0.80;;
32786;SDS011;19139;49.372;8.580;2022-10-16T06:50:59;0.70;;;0.53;;
32786;SDS011;19139;49.372;8.580;2022-10-16T06:53:27;0.80;;;0.50;;
32786;SDS011;19139;49.372;8.580;2022-10-16T06:56:34;1.27;;;0.70;;
32786;SDS011;19139;49.372;8.580;2022-10-16T06:58:55;1.00;;;0.60;;
32786;SDS011;19139;49.372;8.580;2022-10-16T07:01:22;0.90;;;0.70;;
32786;SDS011;19139;49.372;8.580;2022-10-16T07:03:50;1.10;;;0.80;;
32786;SDS011;19139;49.372;8.580;2022-10-16T07:06:17;0.80;;;0.53;;
32786;SDS011;19139;49.372;8.580;2022-10-16T07:08:46;0.83;;;0.60;;
32786;SDS011;19139;49.372;8.580;2022-10-16T07:11:14;1.37;;;0.80;;
32786;SDS011;19139;49.372;8.580;2022-10-16T07:13:43;1.13;;;1.00;;
32786;SDS011;19139;49.372;8.580;2022-10-16T07:16:18;2.33;;;0.80;;
32786;SDS011;19139;49.372;8.580;2022-10-16T07:18:47;0.93;;;0.70;;
32786;SDS011;19139;49.372;8.580;2022-10-16T07:21:16;0.63;;;0.63;;
32786;SDS011;19139;49.372;8.580;2022-10-16T07:23:45;1.03;;;0.70;;
32786;SDS011;19139;49.372;8.580;2022-10-16T07:26:15;1.07;;;0.73;;
32786;SDS011;19139;49.372;8.580;2022-10-16T07:28:42;1.33;;;0.80;;
32786;SDS011;19139;49.372;8.580;2022-10-16T07:31:10;1.00;;;0.60;;
32786;SDS011;19139;49.372;8.580;2022-10-16T07:33:40;1.43;;;1.07;;
32786;SDS011;19139;49.372;8.580;2022-10-16T07:36:09;1.10;;;0.60;;
32786;SDS011;19139;49.372;8.580;2022-10-16T07:38:41;1.57;;;0.43;;
32786;SDS011;19139;49.372;8.580;2022-10-16T07:41:09;1.37;;;1.07;;
32786;SDS011;19139;49.372;8.580;2022-10-16T07:43:44;0.87;;;0.70;;
32786;SDS011;19139;49.372;8.580;2022-10-16T07:46:15;1.17;;;0.80;;
32786;SDS011;19139;49.372;8.580;2022-10-16T07:48:43;0.80;;;0.70;;
32786;SDS011;19139;49.372;8.580;2022-10-16T07:51:13;0.73;;;0.57;;
32786;SDS011;19139;49.372;8.580;2022-10-16T07:53:41;1.13;;;0.93;;
32786;SDS011;19139;49.372;8.580;2022-10-16T07:56:08;0.70;;;0.57;;
32786;SDS011;19139;49.372;8.580;2022-10-16T07:58:35;1.30;;;0.80;;
32786;SDS011;19139;49.372;8.580;2022-10-16T08:01:05;0.77;;;0.50;;
32786;SDS011;19139;49.372;8.580;2022-10-16T08:03:34;0.70;;;0.60;;
32786;SDS011;19139;49.372;8.580;2022-10-16T08:06:00;1.00;;;0.60;;
32786;SDS011;19139;49.372;8.580;2022-10-16T08:08:28;0.80;;;0.70;;
32786;SDS011;19139;49.372;8.580;2022-10-16T08:10:55;1.10;;;0.80;;
32786;SDS011;19139;49.372;8.580;2022-10-16T08:13:21;1.20;;;0.67;;
32786;SDS011;19139;49.372;8.580;2022-10-16T08:15:48;0.97;;;0.70;;
32786;SDS011;19139;49.372;8.580;2022-10-16T08:18:15;1.40;;;0.70;;
32786;SDS011;19139;49.372;8.580;2022-10-16T08:20:42;0.60;;;0.60;;
32786;SDS011;19139;49.372;8.580;2022-10-16T08:23:09;0.93;;;0.77;;
32786;SDS011;19139;49.372;8.580;2022-10-16T08:25:38;0.70;;;0.67;;
32786;SDS011;19139;49.372;8.580;2022-10-16T08:28:05;1.10;;;0.93;;
32786;SDS011;19139;49.372;8.580;2022-10-16T08:30:33;1.13;;;0.70;;
32786;SDS011;19139;49.372;8.580;2022-10-16T08:33:00;1.33;;;0.60;;
32786;SDS011;19139;49.372;8.580;2022-10-16T08:35:32;0.80;;;0.60;;
32786;SDS011;19139;49.372;8.580;2022-10-16T08:37:59;1.17;;;0.60;;
32786;SDS011;19139;49.372;8.580;2022-10-16T08:40:26;0.97;;;0.67;;
32786;SDS011;19139;49.372;8.580;2022-10-16T08:48:53;1.17;;;0.70;;
32786;SDS011;19139;49.372;8.580;2022-10-16T08:51:24;0.83;;;0.60;;
32786;SDS011;19139;49.372;8.580;2022-10-16T08:53:54;0.67;;;0.53;;
32786;SDS011;19139;49.372;8.580;2022-10-16T08:56:24;0.70;;;0.50;;
32786;SDS011;19139;49.372;8.580;2022-10-16T08:58:52;1.10;;;0.70;;
32786;SDS011;19139;49.372;8.580;2022-10-16T09:01:35;0.70;;;0.40;;
32786;SDS011;19139;49.372;8.580;2022-10-16T09:07:18;0.73;;;0.70;;
32786;SDS011;19139;49.372;8.580;2022-10-16T09:12:58;1.00;;;0.83;;
32786;SDS011;19139;49.372;8.580;2022-10-16T09:18:37;0.60;;;0.50;;
32786;SDS011;19139;49.372;8.580;2022-10-16T09:21:16;1.17;;;0.83;;
32786;SDS011;19139;49.372;8.580;2022-10-16T09:23:52;0.63;;;0.50;;
32786;SDS011;19139;49.372;8.580;2022-10-16T09:26:22;0.90;;;0.70;;
32786;SDS011;19139;49.372;8.580;2022-10-16T09:28:54;0.90;;;0.63;;
32786;SDS011;19139;49.372;8.580;2022-10-16T09:31:21;1.20;;;0.80;;
32786;SDS011;19139;49.372;8.580;2022-10-16T09:33:50;1.27;;;0.70;;
32786;SDS011;19139;49.372;8.580;2022-10-16T09:36:21;0.50;;;0.40;;
32786;SDS011;19139;49.372;8.580;2022-10-16T09:39:00;0.87;;;0.60;;
32786;SDS011;19139;49.372;8.580;2022-10-16T09:41:41;0.80;;;0.70;;
32786;SDS011;19139;49.372;8.580;2022-10-16T09:44:17;0.60;;;0.53;;
32786;SDS011;19139;49.372;8.580;2022-10-16T09:46:48;0.83;;;0.80;;
32786;SDS011;19139;49.372;8.580;2022-10-16T09:49:22;0.73;;;0.70;;
32786;SDS011;19139;49.372;8.580;2022-10-16T09:51:51;0.90;;;0.63;;
32786;SDS011;19139;49.372;8.580;2022-10-16T09:54:28;0.80;;;0.60;;
32786;SDS011;19139;49.372;8.580;2022-10-16T09:57:03;1.30;;;0.67;;
32786;SDS011;19139;49.372;8.580;2022-10-16T09:59:31;1.27;;;0.70;;
32786;SDS011;19139;49.372;8.580;2022-10-16T10:02:01;0.60;;;0.50;;
32786;SDS011;19139;49.372;8.580;2022-10-16T10:04:37;0.90;;;0.70;;
32786;SDS011;19139;49.372;8.580;2022-10-16T10:07:15;0.97;;;0.73;;
32786;SDS011;19139;49.372;8.580;2022-10-16T10:10:03;0.90;;;0.70;;
32786;SDS011;19139;49.372;8.580;2022-10-16T10:12:31;0.93;;;0.70;;
32786;SDS011;19139;49.372;8.580;2022-10-16T10:15:04;1.17;;;0.60;;
32786;SDS011;19139;49.372;8.580;2022-10-16T10:17:31;0.97;;;0.60;;
32786;SDS011;19139;49.372;8.580;2022-10-16T10:19:59;0.93;;;0.60;;
32786;SDS011;19139;49.372;8.580;2022-10-16T10:25:12;1.23;;;0.50;;
32786;SDS011;19139;49.372;8.580;2022-10-16T10:27:54;1.63;;;0.63;;
32786;SDS011;19139;49.372;8.580;2022-10-16T10:30:47;0.77;;;0.50;;
32786;SDS011;19139;49.372;8.580;2022-10-16T10:36:27;0.77;;;0.60;;
32786;SDS011;19139;49.372;8.580;2022-10-16T10:39:08;0.80;;;0.80;;
32786;SDS011;19139;49.372;8.580;2022-10-16T10:42:00;0.87;;;0.70;;
32786;SDS011;19139;49.372;8.580;2022-10-16T10:44:57;0.80;;;0.50;;
32786;SDS011;19139;49.372;8.580;2022-10-16T10:50:55;1.20;;;0.70;;
32786;SDS011;19139;49.372;8.580;2022-10-16T10:56:30;1.23;;;0.80;;
32786;SDS011;19139;49.372;8.580;2022-10-16T11:07:18;1.50;;;0.60;;
32786;SDS011;19139;49.372;8.580;2022-10-16T11:09:53;0.60;;;0.50;;
32786;SDS011;19139;49.372;8.580;2022-10-16T11:12:27;1.03;;;0.60;;
32786;SDS011;19139;49.372;8.580;2022-10-16T11:15:19;1.53;;;0.67;;
32786;SDS011;19139;49.372;8.580;2022-10-16T11:17:58;1.57;;;0.70;;
32786;SDS011;19139;49.372;8.580;2022-10-16T11:20:32;1.17;;;0.70;;
32786;SDS011;19139;49.372;8.580;2022-10-16T11:23:23;1.07;;;0.73;;
32786;SDS011;19139;49.372;8.580;2022-10-16T11:25:51;1.40;;;0.90;;
32786;SDS011;19139;49.372;8.580;2022-10-16T11:28:23;1.13;;;0.60;;
32786;SDS011;19139;49.372;8.580;2022-10-16T11:31:16;1.33;;;0.87;;
32786;SDS011;19139;49.372;8.580;2022-10-16T11:36:39;1.40;;;0.80;;
32786;SDS011;19139;49.372;8.580;2022-10-16T11:39:24;0.80;;;0.60;;
32786;SDS011;19139;49.372;8.580;2022-10-16T11:41:54;1.00;;;0.70;;
32786;SDS011;19139;49.372;8.580;2022-10-16T11:55:54;1.10;;;0.70;;
32786;SDS011;19139;49.372;8.580;2022-10-16T11:58:27;1.27;;;0.67;;
32786;SDS011;19139;49.372;8.580;2022-10-16T12:06:35;1.37;;;0.87;;
32786;SDS011;19139;49.372;8.580;2022-10-16T12:09:15;1.60;;;0.77;;
32786;SDS011;19139;49.372;8.580;2022-10-16T12:11:50;1.93;;;0.70;;
32786;SDS011;19139;49.372;8.580;2022-10-16T12:14:32;1.27;;;0.70;;
32786;SDS011;19139;49.372;8.580;2022-10-16T12:17:27;1.23;;;0.60;;
32786;SDS011;19139;49.372;8.580;2022-10-16T12:22:41;1.70;;;1.00;;
32786;SDS011;19139;49.372;8.580;2022-10-16T12:27:56;1.33;;;0.73;;
32786;SDS011;19139;49.372;8.580;2022-10-16T12:30:32;1.17;;;0.80;;
32786;SDS011;19139;49.372;8.580;2022-10-16T12:33:05;1.80;;;1.00;;
32786;SDS011;19139;49.372;8.580;2022-10-16T12:35:43;2.10;;;0.70;;
32786;SDS011;19139;49.372;8.580;2022-10-16T12:38:18;0.80;;;0.60;;
32786;SDS011;19139;49.372;8.580;2022-10-16T12:40:56;1.27;;;0.60;;
32786;SDS011;19139;49.372;8.580;2022-10-16T12:43:35;1.27;;;0.57;;
32786;SDS011;19139;49.372;8.580;2022-10-16T12:48:34;1.17;;;0.60;;
32786;SDS011;19139;49.372;8.580;2022-10-16T12:54:12;1.63;;;0.77;;
32786;SDS011;19139;49.372;8.580;2022-10-16T12:56:48;0.80;;;0.80;;
32786;SDS011;19139;49.372;8.580;2022-10-16T12:59:47;1.20;;;0.80;;
32786;SDS011;19139;49.372;8.580;2022-10-16T13:02:39;1.73;;;0.97;;
32786;SDS011;19139;49.372;8.580;2022-10-16T13:05:59;1.57;;;0.90;;
32786;SDS011;19139;49.372;8.580;2022-10-16T13:15:14;1.70;;;0.83;;
32786;SDS011;19139;49.372;8.580;2022-10-16T13:20:51;1.70;;;0.90;;
32786;SDS011;19139;49.372;8.580;2022-10-16T13:23:53;1.50;;;0.90;;
32786;SDS011;19139;49.372;8.580;2022-10-16T13:26:41;1.33;;;1.00;;
32786;SDS011;19139;49.372;8.580;2022-10-16T13:29:20;1.63;;;1.07;;
32786;SDS011;19139;49.372;8.580;2022-10-16T13:31:53;1.07;;;0.77;;
32786;SDS011;19139;49.372;8.580;2022-10-16T13:34:20;1.00;;;0.90;;
32786;SDS011;19139;49.372;8.580;2022-10-16T13:36:53;1.23;;;1.10;;
32786;SDS011;19139;49.372;8.580;2022-10-16T13:39:21;1.80;;;0.83;;
32786;SDS011;19139;49.372;8.580;2022-10-16T13:42:03;1.03;;;0.67;;
32786;SDS011;19139;49.372;8.580;2022-10-16T13:44:45;1.60;;;0.93;;
32786;SDS011;19139;49.372;8.580;2022-10-16T13:47:20;1.77;;;0.80;;
32786;SDS011;19139;49.372;8.580;2022-10-16T13:53:02;1.40;;;0.97;;
32786;SDS011;19139;49.372;8.580;2022-10-16T13:55:38;1.13;;;0.73;;
32786;SDS011;19139;49.372;8.580;2022-10-16T13:58:13;1.90;;;1.20;;
32786;SDS011;19139;49.372;8.580;2022-10-16T14:00:41;2.47;;;1.40;;
32786;SDS011;19139;49.372;8.580;2022-10-16T14:03:19;1.53;;;1.07;;
32786;SDS011;19139;49.372;8.580;2022-10-16T14:08:19;2.00;;;1.03;;
32786;SDS011;19139;49.372;8.580;2022-10-16T14:10:56;2.23;;;0.93;;
32786;SDS011;19139;49.372;8.580;2022-10-16T14:13:39;1.40;;;1.20;;
32786;SDS011;19139;49.372;8.580;2022-10-16T14:16:10;1.10;;;0.93;;
32786;SDS011;19139;49.372;8.580;2022-10-16T14:18:59;1.53;;;0.90;;
32786;SDS011;19139;49.372;8.580;2022-10-16T14:21:37;1.53;;;0.90;;
32786;SDS011;19139;49.372;8.580;2022-10-16T14:24:30;1.33;;;1.03;;
32786;SDS011;19139;49.372;8.580;2022-10-16T14:27:21;1.90;;;0.80;;
32786;SDS011;19139;49.372;8.580;2022-10-16T14:30:16;1.40;;;0.70;;
32786;SDS011;19139;49.372;8.580;2022-10-16T14:33:00;2.37;;;1.07;;
32786;SDS011;19139;49.372;8.580;2022-10-16T14:35:34;1.37;;;1.17;;
32786;SDS011;19139;49.372;8.580;2022-10-16T14:38:15;1.87;;;0.97;;
32786;SDS011;19139;49.372;8.580;2022-10-16T14:40:50;2.17;;;1.20;;
32786;SDS011;19139;49.372;8.580;2022-10-16T14:43:22;1.83;;;1.00;;
32786;SDS011;19139;49.372;8.580;2022-10-16T14:46:03;2.00;;;1.27;;
32786;SDS011;19139;49.372;8.580;2022-10-16T14:49:00;1.70;;;1.10;;
32786;SDS011;19139;49.372;8.580;2022-10-16T14:51:30;2.23;;;1.00;;
32786;SDS011;19139;49.372;8.580;2022-10-16T14:54:02;2.70;;;1.10;;
32786;SDS011;19139;49.372;8.580;2022-10-16T14:56:45;1.90;;;1.07;;
32786;SDS011;19139;49.372;8.580;2022-10-16T15:02:01;2.33;;;1.00;;
32786;SDS011;19139;49.372;8.580;2022-10-16T15:04:49;2.00;;;1.30;;
32786;SDS011;19139;49.372;8.580;2022-10-16T15:07:20;1.77;;;1.20;;
32786;SDS011;19139;49.372;8.580;2022-10-16T15:09:52;1.93;;;1.00;;
32786;SDS011;19139;49.372;8.580;2022-10-16T15:12:24;1.47;;;1.00;;
32786;SDS011;19139;49.372;8.580;2022-10-16T15:14:51;2.03;;;1.10;;
32786;SDS011;19139;49.372;8.580;2022-10-16T15:17:22;2.00;;;1.17;;
32786;SDS011;19139;49.372;8.580;2022-10-16T15:19:53;2.70;;;1.20;;
32786;SDS011;19139;49.372;8.580;2022-10-16T15:22:20;2.03;;;1.17;;
32786;SDS011;19139;49.372;8.580;2022-10-16T15:24:54;3.27;;;1.57;;
32786;SDS011;19139;49.372;8.580;2022-10-16T15:27:20;2.47;;;1.37;;
32786;SDS011;19139;49.372;8.580;2022-10-16T15:29:52;1.87;;;1.23;;
32786;SDS011;19139;49.372;8.580;2022-10-16T15:32:23;1.87;;;1.13;;
32786;SDS011;19139;49.372;8.580;2022-10-16T15:34:50;2.00;;;1.00;;
32786;SDS011;19139;49.372;8.580;2022-10-16T15:37:21;1.70;;;1.10;;
32786;SDS011;19139;49.372;8.580;2022-10-16T15:39:52;2.00;;;1.10;;
32786;SDS011;19139;49.372;8.580;2022-10-16T15:42:24;3.40;;;0.93;;
32786;SDS011;19139;49.372;8.580;2022-10-16T15:44:51;1.43;;;1.10;;
32786;SDS011;19139;49.372;8.580;2022-10-16T15:47:22;2.80;;;1.00;;
32786;SDS011;19139;49.372;8.580;2022-10-16T15:49:54;1.60;;;0.83;;
32786;SDS011;19139;49.372;8.580;2022-10-16T15:52:20;2.20;;;1.20;;
32786;SDS011;19139;49.372;8.580;2022-10-16T15:54:52;1.93;;;1.17;;
32786;SDS011;19139;49.372;8.580;2022-10-16T15:57:23;3.23;;;1.30;;
32786;SDS011;19139;49.372;8.580;2022-10-16T15:59:50;1.83;;;1.10;;
32786;SDS011;19139;49.372;8.580;2022-10-16T16:02:21;1.90;;;1.17;;
32786;SDS011;19139;49.372;8.580;2022-10-16T16:04:53;2.93;;;1.57;;
32786;SDS011;19139;49.372;8.580;2022-10-16T16:07:19;3.03;;;1.23;;
32786;SDS011;19139;49.372;8.580;2022-10-16T16:09:46;1.60;;;1.17;;
32786;SDS011;19139;49.372;8.580;2022-10-16T16:12:12;2.80;;;1.43;;
32786;SDS011;19139;49.372;8.580;2022-10-16T16:14:44;3.10;;;1.67;;
32786;SDS011;19139;49.372;8.580;2022-10-16T16:17:12;2.47;;;1.10;;
32786;SDS011;19139;49.372;8.580;2022-10-16T16:19:43;2.33;;;1.20;;
32786;SDS011;19139;49.372;8.580;2022-10-16T16:22:11;3.83;;;1.60;;
32786;SDS011;19139;49.372;8.580;2022-10-16T16:24:43;3.67;;;1.80;;
32786;SDS011;19139;49.372;8.580;2022-10-16T16:27:10;2.67;;;1.70;;
32786;SDS011;19139;49.372;8.580;2022-10-16T16:29:41;4.40;;;1.90;;
32786;SDS011;19139;49.372;8.580;2022-10-16T16:32:13;2.90;;;2.00;;
32786;SDS011;19139;49.372;8.580;2022-10-16T16:34:39;2.93;;;2.23;;
32786;SDS011;19139;49.372;8.580;2022-10-16T16:37:11;3.37;;;2.33;;
32786;SDS011;19139;49.372;8.580;2022-10-16T16:39:42;4.73;;;2.60;;
32786;SDS011;19139;49.372;8.580;2022-10-16T16:42:14;4.67;;;3.50;;
32786;SDS011;19139;49.372;8.580;2022-10-16T16:44:40;4.07;;;3.67;;
32786;SDS011;19139;49.372;8.580;2022-10-16T16:47:12;4.00;;;3.60;;
32786;SDS011;19139;49.372;8.580;2022-10-16T16:49:43;6.27;;;5.67;;
32786;SDS011;19139;49.372;8.580;2022-10-16T16:52:10;6.00;;;4.20;;
32786;SDS011;19139;49.372;8.580;2022-10-16T16:54:41;8.20;;;5.60;;
32786;SDS011;19139;49.372;8.580;2022-10-16T16:57:13;5.67;;;4.03;;
32786;SDS011;19139;49.372;8.580;2022-10-16T16:59:39;6.37;;;4.50;;
32786;SDS011;19139;49.372;8.580;2022-10-16T17:02:11;6.07;;;4.20;;
32786;SDS011;19139;49.372;8.580;2022-10-16T17:04:37;6.27;;;4.40;;